Terminal Aerodrome Forecast
Issued by NWS

Home | Current Version | Previous Version | Text Only | Print | Product List | Glossary On
Versions: 1 2 3 4 5 6 7 8 9 10 11 12 13 14 15 16 17 18 19 20
000
FTAK31 PANC 281736
TAFAEN
TAF
PAEN 281736Z 2818/2918 03017KT P6SM BKN080 BKN100
      TEMPO 2819/2823 03017G24KT
     FM290300 08010KT P6SM BKN070=

USA.gov is the U.S. government's official web portal to all federal, state and local government web resources and services.